Latest Weather Observations for Emerald

IDQ60801

Issued at 9:32 pm EST Thursday 23 February 2017 (issued every 30 minutes, with the page automatically refreshed every 10 minutes)

About weather observations | Map of weather stations | Latest weather observations for QLD | Other Formats
Station Details ID: 035264 Name: EMERALD AIRPORT Lat: -23.57 Lon: 148.18 Height: 189.4 m
Data from the previous 72 hours. | See also: Recent months at Emerald
Date/Time
EST
Temp
°C
App
Temp
°C
Dew
Point
°C
Rel
Hum
%
Delta-T
°C
Wind Press
QNH
hPa
Press
MSL
hPa
Rain since
9am
mm
Dir  Spd
km/h
Gust
km/h
Spd
kts
Gust
kts
23/09:00pm 28.4 27.6 13.9 41 8.7 SSE 11 13 6 7 1015.1 1013.8 0.0
23/08:30pm 27.8 26.4 14.4 43 8.1 ESE 15 17 8 9 1014.9 - 0.0
23/08:00pm 28.0 26.1 14.3 43 8.3 ESE 17 19 9 10 1014.6 - 0.0
23/07:30pm 30.4 28.7 13.7 36 10.1 SE 15 17 8 9 1014.2 - 0.0
23/07:00pm 30.7 29.3 13.5 35 10.4 SE 13 15 7 8 1014.0 - 0.0
23/06:30pm 32.6 30.8 13.3 31 11.7 ESE 15 19 8 10 1013.6 - 0.0
23/06:00pm 33.7 30.9 12.7 28 12.7 SE 19 24 10 13 1013.4 1012.2 0.0
23/05:30pm 33.9 30.6 12.8 28 12.8 SSE 22 30 12 16 1013.2 - 0.0
23/05:00pm 34.2 31.4 13.1 28 12.8 ESE 20 26 11 14 1013.2 - 0.0
23/04:30pm 34.2 30.8 12.5 27 13.1 ESE 22 28 12 15 1013.2 - 0.0
23/04:00pm 34.4 30.9 13.3 28 12.9 SSE 24 32 13 17 1013.1 - 0.0
23/03:30pm 34.8 33.1 14.7 30 12.5 SSE 17 30 9 16 1013.2 - 0.0
23/03:00pm 34.2 32.1 13.6 29 12.6 SSE 17 26 9 14 1013.8 1012.5 0.0
23/02:30pm 35.2 33.6 15.0 30 12.7 S 17 33 9 18 1014.1 - 0.0
23/02:00pm 34.8 32.9 15.2 31 12.3 SSE 19 32 10 17 1014.6 - 0.0
23/01:30pm 33.6 33.7 15.6 34 11.3 SE 9 19 5 10 1015.1 - 0.0
23/01:00pm 32.9 33.3 16.3 37 10.5 SSE 9 15 5 8 1015.6 - 0.0
23/12:30pm 32.4 32.4 16.3 38 10.2 E 11 22 6 12 1016.1 - 0.0
23/12:00pm 31.6 32.5 17.5 43 9.1 N 9 13 5 7 1016.5 1015.3 0.0
23/11:30am 31.3 32.3 16.8 41 9.2 S 7 17 4 9 1017.1 - 0.0
23/11:00am 29.8 30.5 16.2 43 8.5 NE 7 15 4 8 1017.7 - 0.0
23/10:30am 29.2 29.9 16.0 44 8.2 NE 7 19 4 10 1018.0 - 0.0
23/10:00am 28.8 29.4 15.7 45 8.1 ESE 7 13 4 7 1018.3 - 0.0
23/09:30am 27.8 28.4 16.7 50 7.0 NE 9 15 5 8 1018.5 - 0.0
23/09:00am 27.3 27.7 17.2 54 6.4 ENE 11 17 6 9 1018.7 1017.5 0.0
23/08:30am 26.9 27.2 17.1 55 6.2 E 11 15 6 8 1018.7 - 0.0
23/08:00am 26.0 26.4 18.2 62 5.0 E 13 17 7 9 1018.7 - 0.0
23/07:30am 24.6 26.1 18.8 70 3.7 ESE 9 13 5 7 1018.5 - 0.0
23/07:00am 23.3 25.3 19.2 78 2.6 E 7 11 4 6 1018.1 - 0.0
23/06:30am 22.7 24.7 19.1 80 2.3 NNE 7 11 4 6 1017.7 - 0.0
23/06:00am 22.2 23.9 19.4 84 1.8 NNE 9 11 5 6 1017.4 1016.2 0.0
23/05:30am 22.2 24.3 19.0 82 2.0 ENE 6 6 3 3 1017.2 - 0.0
23/05:00am 22.1 24.3 19.5 85 1.7 ENE 7 9 4 5 1016.8 - 0.0
23/04:30am 22.3 23.8 19.8 86 1.6 E 11 13 6 7 1016.3 - 0.0
23/04:00am 22.5 24.2 20.2 87 1.5 E 11 13 6 7 1016.1 - 0.0
23/03:30am 22.8 24.5 20.1 85 1.8 E 11 11 6 6 1015.9 - 0.0
23/03:00am 23.6 26.0 19.7 79 2.5 ENE 6 7 3 4 1016.1 1014.9 0.0
23/02:30am 23.9 25.3 19.6 77 2.8 ENE 11 13 6 7 1016.0 - 0.0
23/02:00am 24.1 26.4 19.8 77 2.8 ENE 7 9 4 5 1016.2 - 0.0
23/01:30am 24.2 26.3 19.3 74 3.2 ENE 7 11 4 6 1016.2 - 0.0
23/01:00am 25.2 26.0 19.1 69 3.9 ENE 13 19 7 10 1016.3 - 0.0
23/12:30am 25.7 25.1 18.4 64 4.7 NE 19 24 10 13 1016.3 - 0.0
23/12:00am 26.4 25.2 18.3 61 5.2 NE 22 30 12 16 1016.2 1015.0 0.0
 
Date/Time
EST
Temp
°C
App
Temp
°C
Dew
Point
°C
Rel
Hum
%
Delta-T
°C
Wind Press
QNH
hPa
Press
MSL
hPa
Rain since
9am
mm
Dir  Spd
km/h
Gust
km/h
Spd
kts
Gust
kts
22/11:30pm 26.6 26.7 19.2 64 4.8 NE 17 24 9 13 1016.0 - 0.0
22/11:00pm 27.4 27.1 19.5 62 5.2 NE 20 30 11 16 1015.9 - 0.0
22/10:30pm 27.9 28.2 20.7 65 4.8 NE 20 30 11 16 1015.7 - 0.0
22/10:00pm 28.4 28.7 20.4 62 5.3 NE 19 24 10 13 1015.5 - 0.0
22/09:30pm 28.8 29.1 20.5 61 5.5 NE 19 28 10 15 1015.2 - 0.0
22/09:00pm 29.1 29.4 20.5 59 5.7 NNE 19 24 10 13 1014.7 1013.4 0.0
22/08:30pm 29.9 29.5 19.0 52 7.1 NNE 19 26 10 14 1014.2 - 0.0
22/08:00pm 29.3 29.8 18.4 51 7.0 ENE 13 15 7 8 1013.6 - 0.0
22/07:30pm 29.8 30.1 17.9 48 7.6 E 13 15 7 8 1013.2 - 0.0
22/07:00pm 30.5 31.5 18.6 49 7.7 E 11 13 6 7 1013.1 - 0.0
22/06:30pm 31.3 32.7 18.6 46 8.3 E 9 11 5 6 1012.9 - 0.0
22/06:00pm 32.4 32.8 18.2 42 9.2 ENE 13 17 7 9 1012.6 1011.4 0.0
22/05:30pm 33.7 32.5 17.4 37 10.5 ENE 20 28 11 15 1012.5 - 0.0
22/05:00pm 33.8 33.9 17.5 38 10.5 NE 13 19 7 10 1012.5 - 0.0
22/04:30pm 34.0 33.6 18.1 39 10.4 NE 17 24 9 13 1012.5 - 0.0
22/04:00pm 33.3 34.6 17.5 39 10.2 ENE 7 15 4 8 1012.6 - 0.0
22/03:30pm 33.4 33.5 18.3 40 9.9 E 15 19 8 10 1012.6 - 0.0
22/03:00pm 33.1 32.8 16.5 37 10.6 E 13 24 7 13 1012.9 1011.7 0.0
22/02:30pm 33.2 32.7 17.0 38 10.4 ENE 15 22 8 12 1013.2 - 0.0
22/02:00pm 32.7 32.7 17.3 39 9.9 NE 13 20 7 11 1013.6 - 0.0
22/01:30pm 32.7 32.9 17.7 40 9.7 NE 13 20 7 11 1014.1 - 0.0
22/01:00pm 32.1 31.7 17.2 41 9.5 NE 15 24 8 13 1014.5 - 0.0
22/12:30pm 32.1 31.9 17.6 42 9.3 NE 15 26 8 14 1014.9 - 0.0
22/12:00pm 32.1 32.4 18.7 45 8.8 E 15 24 8 13 1015.3 1014.0 0.0
22/11:30am 31.2 30.8 18.9 48 8.1 ENE 19 26 10 14 1015.9 - 0.0
22/11:00am 30.3 29.8 18.7 50 7.6 E 19 26 10 14 1016.2 - 0.0
22/10:30am 29.6 29.3 19.6 55 6.6 ENE 20 26 11 14 1016.6 - 0.0
22/10:00am 29.3 29.9 21.0 61 5.6 ENE 19 28 10 15 1016.9 - 0.0
22/09:30am 28.3 29.9 22.1 69 4.2 ENE 17 22 9 12 1017.2 - 0.0
22/09:00am 27.4 28.4 21.7 71 3.8 ENE 19 24 10 13 1017.2 1016.0 0.0
22/08:30am 27.2 28.2 22.8 77 3.0 E 22 28 12 15 1017.2 - 0.0
22/08:00am 26.5 27.6 22.3 78 2.8 ENE 20 28 11 15 1017.0 - 0.0
22/07:30am 25.7 28.8 23.6 88 1.4 ENE 13 15 7 8 1017.0 - 0.0
22/07:00am 24.6 28.4 23.4 93 0.8 E 9 13 5 7 1016.8 - 0.0
22/06:30am 24.3 28.3 23.1 93 0.8 E 7 9 4 5 1016.7 - 0.0
22/06:00am 23.9 27.7 22.7 93 0.8 E 7 9 4 5 1016.5 1015.3 0.0
22/05:30am 23.9 28.4 22.3 91 1.1 ENE 2 9 1 5 1016.2 - 0.0
22/05:00am 24.3 27.7 22.0 87 1.5 NE 7 7 4 4 1015.8 - 0.0
22/04:30am 24.5 28.1 22.0 86 1.7 NE 6 7 3 4 1015.7 - 0.0
22/04:00am 24.8 28.1 21.9 84 1.9 NNE 7 9 4 5 1015.4 - 0.0
22/03:30am 25.1 28.0 21.8 82 2.2 NE 9 11 5 6 1015.2 - 0.0
22/03:00am 25.3 28.2 21.8 81 2.3 NE 9 13 5 7 1015.0 1013.7 0.0
22/02:30am 25.6 27.6 21.5 78 2.7 NE 13 19 7 10 1014.9 - 0.0
22/02:00am 26.1 27.8 21.7 77 3.0 ENE 15 19 8 10 1014.7 - 0.0
22/01:30am 26.7 27.6 21.9 75 3.2 ENE 20 28 11 15 1014.7 - 0.0
22/01:00am 27.1 27.8 21.6 72 3.7 ENE 20 28 11 15 1014.8 - 0.0
22/12:30am 27.5 28.2 21.5 70 4.0 ENE 20 26 11 14 1015.1 - 0.0
22/12:00am 27.9 28.3 20.7 65 4.8 ENE 19 26 10 14 1015.0 1013.7 0.0
 
Date/Time
EST
Temp
°C
App
Temp
°C
Dew
Point
°C
Rel
Hum
%
Delta-T
°C
Wind Press
QNH
hPa
Press
MSL
hPa
Rain since
9am
mm
Dir  Spd
km/h
Gust
km/h
Spd
kts
Gust
kts
21/11:30pm 28.4 28.5 20.4 62 5.3 ENE 20 28 11 15 1014.8 - 0.0
21/11:00pm 28.5 28.7 20.5 62 5.3 ENE 20 26 11 14 1014.7 - 0.0
21/10:30pm 28.2 26.8 18.0 54 6.5 E 22 30 12 16 1014.4 - 0.0
21/10:00pm 28.1 26.4 12.4 37 9.2 SSE 13 17 7 9 1013.8 - 0.0
21/09:30pm 29.0 27.0 11.6 34 10.1 SSE 13 17 7 9 1013.6 - 0.0
21/09:00pm 29.3 26.9 11.4 33 10.4 SSE 15 17 8 9 1013.4 1012.2 0.0
21/08:30pm 29.7 27.4 11.7 33 10.5 SSE 15 19 8 10 1013.2 - 0.0
21/08:00pm 30.3 27.9 11.3 31 11.1 SSE 15 19 8 10 1012.9 - 0.0
21/07:30pm 30.6 28.2 11.5 30 11.2 S 15 17 8 9 1012.9 - 0.0
21/07:00pm 31.0 29.5 11.9 31 11.3 SSW 11 15 6 8 1012.9 - 0.0
21/06:30pm 31.9 30.3 11.7 29 11.9 SSW 11 13 6 7 1012.7 - 0.0
21/06:00pm 33.2 30.9 11.7 27 12.8 SW 15 17 8 9 1012.5 1011.3 0.0
21/05:30pm 34.0 31.7 10.6 24 13.7 WSW 13 19 7 10 1012.4 - 0.0
21/05:00pm 34.2 31.4 10.1 23 14.0 WSW 15 17 8 9 1012.2 - 0.0
21/04:30pm 34.7 32.0 10.5 23 14.2 SW 15 19 8 10 1012.2 - 0.0
21/04:00pm 34.3 31.7 9.5 22 14.3 SW 13 19 7 10 1012.1 - 0.0
21/03:30pm 34.6 32.7 9.1 21 14.6 SSE 9 13 5 7 1012.4 - 0.0
21/03:00pm 34.7 32.6 9.9 22 14.4 S 11 20 6 11 1012.5 1011.3 0.0
21/02:30pm 34.6 32.7 10.4 23 14.2 S 11 17 6 9 1012.8 - 0.0
21/02:00pm 34.3 32.7 8.8 21 14.5 E 7 13 4 7 1013.0 - 0.0
21/01:30pm 34.0 32.7 9.3 22 14.2 SW 6 11 3 6 1013.4 - 0.0
21/01:00pm 33.1 30.9 9.2 23 13.6 E 11 19 6 10 1014.0 - 0.0
21/12:30pm 33.0 30.7 9.1 23 13.6 S 11 19 6 10 1014.3 - 0.0
21/12:00pm 32.4 30.5 10.4 26 12.7 SE 11 17 6 9 1014.4 1013.1 0.0
21/11:30am 32.6 30.7 10.6 26 12.8 SE 11 20 6 11 1014.8 - 0.0
21/11:00am 31.6 29.1 9.8 26 12.5 S 13 20 7 11 1015.2 - 0.0
21/10:30am 30.3 28.1 9.2 27 11.9 SE 11 15 6 8 1015.5 - 0.0
21/10:00am 29.9 27.6 10.5 30 11.1 SE 13 19 7 10 1015.7 - 0.0
21/09:30am 29.1 26.2 9.8 30 10.9 SE 15 20 8 11 1016.0 - 0.0
21/09:00am 28.0 24.8 9.8 32 10.2 SE 17 20 9 11 1015.9 1014.7 0.0
21/08:30am 27.0 24.3 10.2 35 9.5 SSE 15 19 8 10 1015.8 - 0.0
21/08:00am 25.3 22.6 10.4 39 8.4 S 15 19 8 10 1015.6 - 0.0
21/07:30am 24.5 22.2 11.8 45 7.3 S 15 19 8 10 1015.5 - 0.0
21/07:00am 22.8 21.2 12.7 53 5.8 S 13 17 7 9 1015.2 - 0.0
21/06:30am 21.2 20.8 12.9 59 4.8 SSE 7 9 4 5 1015.0 - 0.0
21/06:00am 20.3 19.5 12.8 62 4.3 S 9 11 5 6 1014.8 1013.5 0.0
21/05:30am 20.7 19.8 12.7 60 4.6 SE 9 11 5 6 1014.4 - 0.0
21/05:00am 21.5 20.2 12.4 56 5.2 S 11 13 6 7 1014.3 - 0.0
21/04:30am 22.8 20.8 11.5 49 6.4 S 13 17 7 9 1014.0 - 0.0
21/04:00am 23.1 21.2 11.8 49 6.4 S 13 17 7 9 1013.9 - 0.0
21/03:30am 23.6 21.5 11.3 46 6.9 SSE 13 17 7 9 1013.9 - 0.0
21/03:00am 23.1 20.4 11.8 49 6.4 SSE 17 20 9 11 1013.4 1012.2 0.0
21/02:30am 23.7 20.5 11.4 46 7.0 SE 19 22 10 12 1013.2 - 0.0
21/02:00am 24.2 20.2 10.5 42 7.7 SE 22 28 12 15 1012.9 - 0.0
21/01:30am 23.3 19.7 11.7 48 6.6 E 22 32 12 17 1013.2 - 0.0
21/01:00am 24.1 21.2 11.1 44 7.3 SSE 17 22 9 12 1012.4 - 0.0
21/12:30am 24.8 21.8 10.7 41 7.9 SSE 17 22 9 12 1012.8 - 0.0
21/12:00am 24.8 21.9 11.0 42 7.8 SSE 17 20 9 11 1012.8 1011.6 0.0
 
Date/Time
EST
Temp
°C
App
Temp
°C
Dew
Point
°C
Rel
Hum
%
Delta-T
°C
Wind Press
QNH
hPa
Press
MSL
hPa
Rain since
9am
mm
Dir  Spd
km/h
Gust
km/h
Spd
kts
Gust
kts
20/11:30pm 25.1 22.2 10.9 41 8.0 SSE 17 22 9 12 1012.9 - 0.0
20/11:00pm 25.4 22.6 11.2 41 8.1 SE 17 20 9 11 1012.8 - 0.0
20/10:30pm 25.6 22.7 11.0 40 8.3 SE 17 20 9 11 1012.6 - 0.0
20/10:00pm 26.0 23.7 10.6 38 8.7 SSE 13 17 7 9 1012.4 - 0.0

Other Formats:

Comma delimited format used in spreadsheet applications
http://www.bom.gov.au/fwo/IDQ60801/IDQ60801.94363.axf

JavaScript Object Notation format (JSON) in row-major order
http://www.bom.gov.au/fwo/IDQ60801/IDQ60801.94363.json